Lord Nelson — GHJV — position and weather

sailwx.info

Track history (hours):
 
Tides and Currents Weather Stations Pressure Air Temp Water Temp Dewpoint Dewpoint Depression Visibility Wind Speed Wind Dir Waves Ship Positions

Lord Nelson (United Kingdom)

Ship's website: http://www.jst.org.uk/

Last reported at 2016-May-06 14:28 UTC. Time now 2016-May-06 14:59 UTC.
Position N 50°53' W 001°24'.

Length 54.7 m; beam 9 m; draft 4.1 m.

Type: Sailing vessel. MMSI: 232003690.

Date/timePositionNaut miles runAvg speedWind from/ knotsBaromVisibWave heightAir tempDewpointWater temp
2016-May-06 14:28N 50°53' W 001°24'1 0.1
2016-May-06 10:33N 50°53' W 001°24'6 6.2
2016-May-06 09:33N 50°48' W 001°18'4 4.3
2016-May-06 08:32N 50°45' W 001°22'0 0.0
2016-May-06 07:32N 50°45' W 001°22'0 0.0
2016-May-06 06:32N 50°45' W 001°22'0 0.0
2016-May-06 05:32N 50°45' W 001°22'0 0.0
2016-May-06 04:29N 50°45' W 001°22'0 0.1
2016-May-06 03:32N 50°45' W 001°22'0 0.0
2016-May-06 02:23N 50°45' W 001°22'0 0.0
2016-May-06 01:25N 50°45' W 001°22'0 0.0
2016-May-06 00:25N 50°45' W 001°22'0 0.0
2016-May-05 23:31N 50°45' W 001°22'0 0.0
2016-May-05 22:31N 50°45' W 001°22'0 0.0
2016-May-05 21:31N 50°45' W 001°22'0 0.0
2016-May-05 20:28N 50°45' W 001°22'0 0.0
2016-May-05 19:28N 50°45' W 001°22'0 0.0
2016-May-05 18:31N 50°45' W 001°22'0 0.0
2016-May-05 17:31N 50°45' W 001°22'0 0.0
2016-May-05 16:28N 50°45' W 001°22'2 1.9
2016-May-05 15:34N 50°45' W 001°25'4 4.1
2016-May-05 14:34N 50°43' W 001°30'6 5.7
2016-May-05 13:33N 50°45' W 001°22'4 4.2
2016-May-05 12:34N 50°47' W 001°16'4 4.4
2016-May-05 11:33N 50°46' W 001°09'5 5.3
2016-May-05 10:34N 50°43' W 001°02'5 5.0
2016-May-05 09:34N 50°38' W 001°01'5 4.8
2016-May-05 08:33N 50°39' W 001°09'0 0.0
2016-May-05 05:27N 50°39' W 001°09'0 0.0
2016-May-05 04:33N 50°39' W 001°09'0 0.0
2016-May-05 03:21N 50°39' W 001°09'0 0.0
2016-May-05 02:27N 50°39' W 001°09'0 0.0
2016-May-05 01:33N 50°39' W 001°09'0 0.0
2016-May-05 00:33N 50°39' W 001°09'0 0.0
2016-May-04 23:33N 50°39' W 001°09'0 0.0
2016-May-04 22:33N 50°39' W 001°09'0 0.0
2016-May-04 21:33N 50°39' W 001°09'0 0.0
2016-May-04 20:33N 50°39' W 001°09'0 0.0
2016-May-04 19:30N 50°39' W 001°09'1 0.6
2016-May-04 18:34N 50°39' W 001°08'2 2.3
2016-May-04 17:33N 50°39' W 001°04'1 1.0
2016-May-04 16:33N 50°39' W 001°03'2 1.7
2016-May-04 15:34N 50°41' W 001°02'2 2.0
2016-May-04 14:33N 50°43' W 001°00'1 1.5
2016-May-04 13:33N 50°43' W 001°02'1 1.2
2016-May-04 12:33N 50°43' W 001°04'0 0.1
2016-May-04 11:33N 50°43' W 001°04'0 0.0
2016-May-04 10:06N 50°43' W 001°04'0 0.0
2016-May-04 09:33N 50°43' W 001°04'0 0.0
2016-May-04 05:32N 50°43' W 001°04'0 0.0
2016-May-04 04:32N 50°43' W 001°04'0 0.0
2016-May-04 03:32N 50°43' W 001°04'0 0.0
2016-May-04 02:32N 50°43' W 001°04'0 0.0
2016-May-04 01:32N 50°43' W 001°04'0 0.0
2016-May-04 00:32N 50°43' W 001°04'0 0.0
2016-May-03 23:32N 50°43' W 001°04'0 0.0
2016-May-03 22:32N 50°43' W 001°04'0 0.0
2016-May-03 21:29N 50°43' W 001°04'0 0.0
2016-May-03 20:32N 50°43' W 001°04'0 0.0
2016-May-03 19:32N 50°43' W 001°04'3 2.6
2016-May-03 18:34N 50°45' W 001°06'8 7.9
2016-May-03 17:33N 50°49' W 001°17'6 6.1
2016-May-03 16:31N 50°53' W 001°24'0 0.0
2016-May-03 15:25N 50°53' W 001°24'0 0.0
2016-May-03 13:13N 50°53' W 001°24'0 0.0
2016-May-03 12:31N 50°53' W 001°24'0 0.0
2016-May-03 05:33N 50°53' W 001°24'0 0.0
2016-May-03 02:24N 50°53' W 001°24'0 0.0
2016-May-02 19:30N 50°53' W 001°24'0 0.0
2016-May-02 15:14N 50°53' W 001°24'4 5.7
2016-May-02 14:33N 50°51' W 001°20'8 7.9
2016-May-02 13:33N 50°46' W 001°10'4 4.5
2016-May-02 12:33N 50°44' W 001°04'7 6.7
2016-May-02 11:34N 50°47' W 001°13'7 7.2
2016-May-02 10:33N 50°52' W 001°22'2 0.2
2016-May-01 22:29N 50°53' W 001°24'0 0.0
2016-May-01 21:32N 50°53' W 001°24'0 0.0
2016-May-01 19:29N 50°53' W 001°24'0 0.0
2016-May-01 18:29N 50°53' W 001°24'0 0.0
2016-May-01 17:20N 50°53' W 001°24'0 0.0
2016-May-01 09:19N 50°53' W 001°24'2 3.0
2016-May-01 08:33N 50°52' W 001°22'5 5.0
2016-May-01 07:33N 50°47' W 001°19'4 4.1
2016-May-01 06:32N 50°45' W 001°25'0 0.0
2016-May-01 05:32N 50°45' W 001°25'0 0.0
2016-May-01 04:32N 50°45' W 001°25'0 0.0
2016-May-01 03:14N 50°45' W 001°25'0 0.0
2016-May-01 02:32N 50°45' W 001°25'0 0.0
2016-Apr-30 23:29N 50°45' W 001°25'0 0.0
2016-Apr-30 22:32N 50°45' W 001°25'0 0.0
2016-Apr-30 21:26N 50°45' W 001°25'0 0.0
2016-Apr-30 20:29N 50°45' W 001°25'1 0.4
2016-Apr-30 18:33N 50°45' W 001°26'5 4.6
2016-Apr-30 17:33N 50°43' W 001°32'6 5.5
2016-Apr-30 16:34N 50°39' W 001°38'1 1.2
2016-Apr-30 15:33N 50°38' W 001°39'3 2.6
2016-Apr-30 14:33N 50°35' W 001°40'5 4.7
2016-Apr-30 13:34N 50°36' W 001°47'5 5.3
2016-Apr-30 12:33N 50°33' W 001°55'19 3.5
2016-Apr-30 07:10N 50°26' W 002°23'15 5.5
2016-Apr-30 04:30N 50°11' W 002°26'  
2016-Apr-26 14:33N 50°30' W 001°45'  
Track history (hours):
 
Tides and Currents Weather Stations Pressure Air Temp Water Temp Dewpoint Dewpoint Depression Visibility Wind Speed Wind Dir Waves Ship Positions

Lord Nelson (United Kingdom)

Ship's website: http://www.jst.org.uk/

Last reported at 2016-May-06 14:28 UTC. Time now 2016-May-06 14:59 UTC.
Position N 50°53' W 001°24'.

Length 54.7 m; beam 9 m; draft 4.1 m.

Type: Sailing vessel. MMSI: 232003690.

Date/timePositionNaut miles runAvg speedWind from/ knotsBaromVisibWave heightAir tempDewpointWater temp
2016-May-06 14:28N 50°53' W 001°24'1 0.1
2016-May-06 10:33N 50°53' W 001°24'6 6.2
2016-May-06 09:33N 50°48' W 001°18'4 4.3
2016-May-06 08:32N 50°45' W 001°22'0 0.0
2016-May-06 07:32N 50°45' W 001°22'0 0.0
2016-May-06 06:32N 50°45' W 001°22'0 0.0
2016-May-06 05:32N 50°45' W 001°22'0 0.0
2016-May-06 04:29N 50°45' W 001°22'0 0.1
2016-May-06 03:32N 50°45' W 001°22'0 0.0
2016-May-06 02:23N 50°45' W 001°22'0 0.0
2016-May-06 01:25N 50°45' W 001°22'0 0.0
2016-May-06 00:25N 50°45' W 001°22'0 0.0
2016-May-05 23:31N 50°45' W 001°22'0 0.0
2016-May-05 22:31N 50°45' W 001°22'0 0.0
2016-May-05 21:31N 50°45' W 001°22'0 0.0
2016-May-05 20:28N 50°45' W 001°22'0 0.0
2016-May-05 19:28N 50°45' W 001°22'0 0.0
2016-May-05 18:31N 50°45' W 001°22'0 0.0
2016-May-05 17:31N 50°45' W 001°22'0 0.0
2016-May-05 16:28N 50°45' W 001°22'2 1.9
2016-May-05 15:34N 50°45' W 001°25'4 4.1
2016-May-05 14:34N 50°43' W 001°30'6 5.7
2016-May-05 13:33N 50°45' W 001°22'4 4.2
2016-May-05 12:34N 50°47' W 001°16'4 4.4
2016-May-05 11:33N 50°46' W 001°09'5 5.3
2016-May-05 10:34N 50°43' W 001°02'5 5.0
2016-May-05 09:34N 50°38' W 001°01'5 4.8
2016-May-05 08:33N 50°39' W 001°09'0 0.0
2016-May-05 05:27N 50°39' W 001°09'0 0.0
2016-May-05 04:33N 50°39' W 001°09'0 0.0
2016-May-05 03:21N 50°39' W 001°09'0 0.0
2016-May-05 02:27N 50°39' W 001°09'0 0.0
2016-May-05 01:33N 50°39' W 001°09'0 0.0
2016-May-05 00:33N 50°39' W 001°09'0 0.0
2016-May-04 23:33N 50°39' W 001°09'0 0.0
2016-May-04 22:33N 50°39' W 001°09'0 0.0
2016-May-04 21:33N 50°39' W 001°09'0 0.0
2016-May-04 20:33N 50°39' W 001°09'0 0.0
2016-May-04 19:30N 50°39' W 001°09'1 0.6
2016-May-04 18:34N 50°39' W 001°08'2 2.3
2016-May-04 17:33N 50°39' W 001°04'1 1.0
2016-May-04 16:33N 50°39' W 001°03'2 1.7
2016-May-04 15:34N 50°41' W 001°02'2 2.0
2016-May-04 14:33N 50°43' W 001°00'1 1.5
2016-May-04 13:33N 50°43' W 001°02'1 1.2
2016-May-04 12:33N 50°43' W 001°04'0 0.1
2016-May-04 11:33N 50°43' W 001°04'0 0.0
2016-May-04 10:06N 50°43' W 001°04'0 0.0
2016-May-04 09:33N 50°43' W 001°04'0 0.0
2016-May-04 05:32N 50°43' W 001°04'0 0.0
2016-May-04 04:32N 50°43' W 001°04'0 0.0
2016-May-04 03:32N 50°43' W 001°04'0 0.0
2016-May-04 02:32N 50°43' W 001°04'0 0.0
2016-May-04 01:32N 50°43' W 001°04'0 0.0
2016-May-04 00:32N 50°43' W 001°04'0 0.0
2016-May-03 23:32N 50°43' W 001°04'0 0.0
2016-May-03 22:32N 50°43' W 001°04'0 0.0
2016-May-03 21:29N 50°43' W 001°04'0 0.0
2016-May-03 20:32N 50°43' W 001°04'0 0.0
2016-May-03 19:32N 50°43' W 001°04'3 2.6
2016-May-03 18:34N 50°45' W 001°06'8 7.9
2016-May-03 17:33N 50°49' W 001°17'6 6.1
2016-May-03 16:31N 50°53' W 001°24'0 0.0
2016-May-03 15:25N 50°53' W 001°24'0 0.0
2016-May-03 13:13N 50°53' W 001°24'0 0.0
2016-May-03 12:31N 50°53' W 001°24'0 0.0
2016-May-03 05:33N 50°53' W 001°24'0 0.0
2016-May-03 02:24N 50°53' W 001°24'0 0.0
2016-May-02 19:30N 50°53' W 001°24'0 0.0
2016-May-02 15:14N 50°53' W 001°24'4 5.7
2016-May-02 14:33N 50°51' W 001°20'8 7.9
2016-May-02 13:33N 50°46' W 001°10'4 4.5
2016-May-02 12:33N 50°44' W 001°04'7 6.7
2016-May-02 11:34N 50°47' W 001°13'7 7.2
2016-May-02 10:33N 50°52' W 001°22'2 0.2
2016-May-01 22:29N 50°53' W 001°24'0 0.0
2016-May-01 21:32N 50°53' W 001°24'0 0.0
2016-May-01 19:29N 50°53' W 001°24'0 0.0
2016-May-01 18:29N 50°53' W 001°24'0 0.0
2016-May-01 17:20N 50°53' W 001°24'0 0.0
2016-May-01 09:19N 50°53' W 001°24'2 3.0
2016-May-01 08:33N 50°52' W 001°22'5 5.0
2016-May-01 07:33N 50°47' W 001°19'4 4.1
2016-May-01 06:32N 50°45' W 001°25'0 0.0
2016-May-01 05:32N 50°45' W 001°25'0 0.0
2016-May-01 04:32N 50°45' W 001°25'0 0.0
2016-May-01 03:14N 50°45' W 001°25'0 0.0
2016-May-01 02:32N 50°45' W 001°25'0 0.0
2016-Apr-30 23:29N 50°45' W 001°25'0 0.0
2016-Apr-30 22:32N 50°45' W 001°25'0 0.0
2016-Apr-30 21:26N 50°45' W 001°25'0 0.0
2016-Apr-30 20:29N 50°45' W 001°25'1 0.4
2016-Apr-30 18:33N 50°45' W 001°26'5 4.6
2016-Apr-30 17:33N 50°43' W 001°32'6 5.5
2016-Apr-30 16:34N 50°39' W 001°38'1 1.2
2016-Apr-30 15:33N 50°38' W 001°39'3 2.6
2016-Apr-30 14:33N 50°35' W 001°40'5 4.7
2016-Apr-30 13:34N 50°36' W 001°47'5 5.3
2016-Apr-30 12:33N 50°33' W 001°55'19 3.5
2016-Apr-30 07:10N 50°26' W 002°23'15 5.5
2016-Apr-30 04:30N 50°11' W 002°26'  
2016-Apr-26 14:33N 50°30' W 001°45'  

Dump ship's entire track history